Time;durP1;ratioP1;P1;durP2;ratioP2;P2;SDS_P1;SDS_P2;PMS_P1;PMS_P2;Temp;Humidity;BMP_temperature;BMP_pressure;BME280_temperature;BME280_humidity;BME280_pressure;Samples;Min_cycle;Max_cycle;Signal;HPM_P1;HPM_P2
2023/11/02 00:02:27;;;;;;;1.02;0.60;;;11.90;99.90;;;;;;4994721;28;20258;-79
2023/11/02 00:04:56;;;;;;;1.63;0.30;;;11.90;99.90;;;;;;5003811;28;20125;-79
2023/11/02 00:07:23;;;;;;;0.60;0.30;;;11.90;99.90;;;;;;5000271;28;20046;-79
2023/11/02 00:09:56;;;;;;;0.88;0.30;;;12.00;99.90;;;;;;4996325;28;20127;-79
2023/11/02 00:12:28;;;;;;;0.50;0.30;;;12.00;99.90;;;;;;4997752;28;20369;-79
2023/11/02 00:14:55;;;;;;;1.00;0.40;;;12.00;99.90;;;;;;4995590;28;20057;-79
2023/11/02 00:17:35;;;;;;;3.08;0.40;;;12.10;99.90;;;;;;4994838;28;20078;-79
2023/11/02 00:20:04;;;;;;;;;;;12.10;99.90;;;;;;4999542;28;20041;-79
2023/11/02 00:22:31;;;;;;;0.38;0.30;;;12.10;99.90;;;;;;5000422;28;19922;-79
2023/11/02 00:25:01;;;;;;;2.28;0.52;;;12.10;99.90;;;;;;4998977;28;20065;-79
2023/11/02 00:27:28;;;;;;;;;;;12.20;99.90;;;;;;4998784;28;20070;-80
2023/11/02 00:29:55;;;;;;;1.42;0.28;;;12.10;99.90;;;;;;4997987;28;19922;-80
2023/11/02 00:32:22;;;;;;;0.77;0.30;;;12.20;99.90;;;;;;4999456;28;20085;-81
2023/11/02 00:34:49;;;;;;;0.43;0.22;;;12.20;99.90;;;;;;5005331;28;20399;-79
2023/11/02 00:37:16;;;;;;;0.98;0.30;;;12.20;99.90;;;;;;4999877;28;20101;-79
2023/11/02 00:39:42;;;;;;;0.75;0.38;;;12.20;99.90;;;;;;4993032;28;20498;-79
2023/11/02 00:42:11;;;;;;;1.10;0.40;;;12.20;99.90;;;;;;4996192;28;20046;-78
2023/11/02 00:44:38;;;;;;;1.83;0.30;;;12.20;99.90;;;;;;4998811;28;20052;-80
2023/11/02 00:47:06;;;;;;;0.35;0.25;;;12.20;99.90;;;;;;5002004;28;20088;-79
2023/11/02 00:49:35;;;;;;;0.75;0.30;;;12.20;99.90;;;;;;5000638;28;20038;-80
2023/11/02 00:52:04;;;;;;;0.45;0.28;;;12.30;99.90;;;;;;4998890;28;20391;-79
2023/11/02 00:54:43;;;;;;;2.88;0.50;;;12.30;99.90;;;;;;4998040;28;20042;-80
2023/11/02 00:57:14;;;;;;;0.17;0.17;;;12.30;99.90;;;;;;4993124;28;20110;-78
2023/11/02 00:59:44;;;;;;;4.45;0.65;;;12.30;99.90;;;;;;4996215;28;20056;-79
2023/11/02 01:02:13;;;;;;;0.40;0.20;;;12.30;99.90;;;;;;5017155;28;20057;-78
2023/11/02 01:04:42;;;;;;;0.60;0.30;;;12.40;99.90;;;;;;5001324;28;20047;-79
2023/11/02 01:07:14;;;;;;;1.10;0.35;;;12.40;99.90;;;;;;4996969;28;20125;-79
2023/11/02 01:09:40;;;;;;;0.40;0.30;;;12.50;99.90;;;;;;4996003;28;20046;-80
2023/11/02 01:12:07;;;;;;;0.30;0.30;;;12.50;99.90;;;;;;4994049;28;20039;-79
2023/11/02 01:14:45;;;;;;;0.95;0.32;;;12.60;99.90;;;;;;4997724;28;20056;-79
2023/11/02 01:17:30;;;;;;;0.43;0.38;;;12.60;99.90;;;;;;5001961;28;20565;-79
2023/11/02 01:20:03;;;;;;;1.65;0.30;;;12.60;99.90;;;;;;4994944;28;20133;-79
2023/11/02 01:22:32;;;;;;;0.35;0.20;;;12.70;99.90;;;;;;4998269;28;20095;-80
2023/11/02 01:25:05;;;;;;;1.52;0.40;;;12.70;99.90;;;;;;4998669;28;20043;-80
2023/11/02 01:27:32;;;;;;;1.48;0.28;;;12.80;99.90;;;;;;4989474;28;20046;-79
2023/11/02 01:30:04;;;;;;;0.95;0.22;;;12.90;99.90;;;;;;5003380;28;20050;-79
2023/11/02 01:32:32;;;;;;;0.20;0.20;;;13.00;99.90;;;;;;5002072;28;20049;-79
2023/11/02 01:34:58;;;;;;;0.25;0.25;;;13.00;99.90;;;;;;5002103;28;20053;-80
2023/11/02 01:37:28;;;;;;;0.45;0.30;;;13.10;99.90;;;;;;4998580;28;20051;-80
2023/11/02 01:40:29;;;;;;;0.57;0.30;;;13.10;99.90;;;;;;4998758;28;20049;-80
2023/11/02 01:42:57;;;;;;;0.30;0.30;;;13.20;99.90;;;;;;4993852;28;20049;-80
2023/11/02 01:45:27;;;;;;;0.38;0.35;;;13.30;99.90;;;;;;5005968;28;20100;-80
2023/11/02 01:48:05;;;;;;;0.52;0.40;;;13.30;99.90;;;;;;5003607;28;20410;-80
2023/11/02 01:50:35;;;;;;;0.40;0.30;;;13.40;99.90;;;;;;4998087;28;20050;-79
2023/11/02 01:53:19;;;;;;;1.55;0.57;;;13.40;99.90;;;;;;4998773;28;20046;-80
2023/11/02 01:55:46;;;;;;;0.75;0.35;;;13.40;99.90;;;;;;4995709;28;20082;-80
2023/11/02 01:58:46;;;;;;;1.85;0.40;;;13.50;99.90;;;;;;5003379;28;20426;-80
2023/11/02 02:01:23;;;;;;;;;;;13.50;99.90;;;;;;5001353;28;20077;-80
2023/11/02 02:04:03;;;;;;;1.10;0.43;;;13.50;99.90;;;;;;5002427;28;19922;-79
2023/11/02 02:06:36;;;;;;;1.13;0.45;;;13.50;99.90;;;;;;5002944;28;20105;-79
2023/11/02 02:09:12;;;;;;;2.30;0.55;;;13.50;99.90;;;;;;5002616;28;20042;-80
2023/11/02 02:11:54;;;;;;;1.65;0.47;;;13.40;99.90;;;;;;5003184;28;20125;-78
2023/11/02 02:14:29;;;;;;;0.65;0.40;;;13.40;99.90;;;;;;5008068;28;20038;-80
2023/11/02 02:17:11;;;;;;;0.70;0.32;;;13.40;99.90;;;;;;5006718;28;20042;-79
2023/11/02 02:19:58;;;;;;;0.85;0.73;;;13.30;99.90;;;;;;5002796;28;20046;-79
2023/11/02 02:22:32;;;;;;;0.80;0.40;;;13.20;99.90;;;;;;5004734;28;20046;-80
2023/11/02 02:25:06;;;;;;;1.95;0.60;;;13.20;99.90;;;;;;5002674;28;20129;-79
2023/11/02 02:27:33;;;;;;;1.08;0.38;;;13.10;99.90;;;;;;5002573;28;20038;-80
2023/11/02 02:30:27;;;;;;;0.52;0.47;;;13.10;99.90;;;;;;5003883;28;20045;-80
2023/11/02 02:33:32;;;;;;;1.90;0.57;;;13.10;99.90;;;;;;5018354;28;20046;-80
2023/11/02 02:36:35;;;;;;;1.05;0.50;;;13.00;99.90;;;;;;5000857;28;20050;-79
2023/11/02 02:39:07;;;;;;;2.58;0.57;;;12.90;99.90;;;;;;4991722;28;20100;-79
2023/11/02 02:41:41;;;;;;;0.90;0.63;;;12.90;99.90;;;;;;5005463;28;20500;-79
2023/11/02 02:44:11;;;;;;;0.63;0.50;;;12.80;99.90;;;;;;5004372;28;20046;-80
2023/11/02 02:46:38;;;;;;;1.52;0.50;;;12.80;99.90;;;;;;5003875;28;20046;-80
2023/11/02 02:49:05;;;;;;;0.88;0.50;;;12.80;99.90;;;;;;5003472;28;20058;-80
2023/11/02 02:51:40;;;;;;;3.20;0.50;;;12.70;99.90;;;;;;4999132;28;20038;-80
2023/11/02 02:54:10;;;;;;;0.73;0.47;;;12.70;99.90;;;;;;4999094;28;20413;-79
2023/11/02 02:56:40;;;;;;;0.47;0.40;;;12.70;99.90;;;;;;5004779;28;20042;-78
2023/11/02 02:59:16;;;;;;;4.53;0.40;;;12.60;99.90;;;;;;5003729;28;20045;-79
2023/11/02 03:01:46;;;;;;;1.13;0.50;;;12.60;99.90;;;;;;5000755;28;20065;-79
2023/11/02 03:04:14;;;;;;;0.45;0.40;;;12.50;99.90;;;;;;4998179;28;20501;-79
2023/11/02 03:06:51;;;;;;;1.55;0.40;;;12.50;99.90;;;;;;4994339;28;20089;-78
2023/11/02 03:09:21;;;;;;;4.20;0.40;;;12.50;99.90;;;;;;5003301;28;20053;-79
2023/11/02 03:11:53;;;;;;;0.43;0.40;;;12.50;99.90;;;;;;5002898;28;20053;-79
2023/11/02 03:14:22;;;;;;;0.80;0.50;;;12.50;99.90;;;;;;5000625;28;20077;-79
2023/11/02 03:16:51;;;;;;;1.90;0.40;;;12.50;99.90;;;;;;4997429;28;20076;-79
2023/11/02 03:19:39;;;;;;;0.47;0.38;;;12.50;99.90;;;;;;4999402;28;20395;-80
2023/11/02 03:22:09;;;;;;;0.40;0.40;;;12.50;99.90;;;;;;4998393;28;20046;-79
2023/11/02 03:24:50;;;;;;;0.30;0.30;;;12.50;99.90;;;;;;5001384;28;20104;-79
2023/11/02 03:27:39;;;;;;;2.72;0.60;;;12.60;99.90;;;;;;5001426;28;20076;-79
2023/11/02 03:30:38;;;;;;;0.73;0.40;;;12.60;99.90;;;;;;4995092;28;20046;-79
2023/11/02 03:33:33;;;;;;;1.85;0.30;;;12.70;99.90;;;;;;4991706;28;20425;-80
2023/11/02 03:36:20;;;;;;;0.55;0.40;;;12.70;99.90;;;;;;4996094;28;20510;-79
2023/11/02 03:39:11;;;;;;;1.35;0.50;;;12.70;99.90;;;;;;5001807;28;20046;-79
2023/11/02 03:42:06;;;;;;;0.65;0.30;;;12.80;99.90;;;;;;4994809;28;20130;-80
2023/11/02 03:44:54;;;;;;;0.68;0.50;;;12.80;99.90;;;;;;4996812;28;20074;-79
2023/11/02 03:47:31;;;;;;;0.35;0.30;;;12.80;99.90;;;;;;4994968;28;20540;-80
2023/11/02 03:50:18;;;;;;;0.77;0.30;;;12.90;99.90;;;;;;4996909;28;20106;-80
2023/11/02 03:52:59;;;;;;;0.57;0.35;;;12.90;99.90;;;;;;5013955;28;20086;-79
2023/11/02 03:55:56;;;;;;;1.08;0.32;;;13.00;99.90;;;;;;5000378;28;20135;-79
2023/11/02 03:58:46;;;;;;;0.40;0.32;;;13.00;99.90;;;;;;4995722;28;20081;-79
2023/11/02 04:01:24;;;;;;;1.48;0.55;;;13.00;99.90;;;;;;4995716;28;20089;-79
2023/11/02 04:03:54;;;;;;;2.28;0.45;;;13.00;99.90;;;;;;4994714;28;20109;-80
2023/11/02 04:06:29;;;;;;;0.50;0.43;;;13.10;99.90;;;;;;4999727;28;20046;-79
2023/11/02 04:09:00;;;;;;;0.20;0.20;;;13.10;99.90;;;;;;5003973;28;20089;-79
2023/11/02 04:11:29;;;;;;;0.30;0.30;;;13.10;99.90;;;;;;5000288;28;20042;-78
2023/11/02 04:14:04;;;;;;;0.35;0.30;;;13.10;99.90;;;;;;4999292;28;20085;-79
2023/11/02 04:16:31;;;;;;;0.82;0.30;;;13.20;99.90;;;;;;4999748;28;20145;-80
2023/11/02 04:18:59;;;;;;;0.65;0.35;;;13.20;99.90;;;;;;4989603;28;20467;-79
2023/11/02 04:21:26;;;;;;;0.73;0.45;;;13.30;99.90;;;;;;5003927;28;20046;-80
2023/11/02 04:23:53;;;;;;;0.80;0.40;;;13.30;99.90;;;;;;5003899;28;20054;-80
2023/11/02 04:26:19;;;;;;;0.73;0.63;;;13.40;99.90;;;;;;5001277;28;20046;-80
2023/11/02 04:28:46;;;;;;;1.83;0.50;;;13.50;99.90;;;;;;4998303;28;20495;-79
2023/11/02 04:31:14;;;;;;;0.90;0.30;;;13.70;99.90;;;;;;4996935;28;20047;-79
2023/11/02 04:33:44;;;;;;;0.50;0.40;;;13.70;99.90;;;;;;4995796;28;20077;-80
2023/11/02 04:36:11;;;;;;;0.47;0.30;;;13.90;99.90;;;;;;5002582;28;20045;-79
2023/11/02 04:38:38;;;;;;;0.65;0.20;;;13.90;99.90;;;;;;5000687;28;20495;-80
2023/11/02 04:41:05;;;;;;;1.45;0.20;;;14.10;99.90;;;;;;5003054;28;20081;-80
2023/11/02 04:43:32;;;;;;;0.28;0.20;;;14.10;99.90;;;;;;4999300;28;20097;-80
2023/11/02 04:45:59;;;;;;;1.70;0.40;;;14.20;99.90;;;;;;4998860;28;20086;-80
2023/11/02 04:48:25;;;;;;;0.65;0.30;;;14.30;99.90;;;;;;5000718;28;20104;-80
2023/11/02 04:50:56;;;;;;;0.55;0.30;;;14.30;99.90;;;;;;5002782;28;20498;-80
2023/11/02 04:53:24;;;;;;;0.65;0.30;;;14.30;99.90;;;;;;5002787;28;20050;-80
2023/11/02 04:55:51;;;;;;;0.38;0.30;;;14.30;99.90;;;;;;5001330;28;20050;-80
2023/11/02 04:58:18;;;;;;;1.77;0.50;;;14.30;99.90;;;;;;4999461;28;20525;-80
2023/11/02 05:00:44;;;;;;;0.68;0.60;;;14.20;99.90;;;;;;4998398;28;20050;-81
2023/11/02 05:03:11;;;;;;;1.25;0.80;;;14.20;99.90;;;;;;4999922;28;20096;-80
2023/11/02 05:05:38;;;;;;;0.52;0.30;;;14.20;99.90;;;;;;4999697;28;20104;-80
2023/11/02 05:08:08;;;;;;;0.40;0.20;;;14.10;99.90;;;;;;5004844;28;20485;-80
2023/11/02 05:10:35;;;;;;;;;;;14.10;99.90;;;;;;5001801;28;20073;-79
2023/11/02 05:13:02;;;;;;;5.38;0.20;;;14.00;99.90;;;;;;5000662;28;19984;-80
2023/11/02 05:15:29;;;;;;;0.50;0.28;;;14.00;99.90;;;;;;5000520;28;20134;-80
2023/11/02 05:17:56;;;;;;;0.88;0.30;;;14.00;99.90;;;;;;5005581;28;20191;-80
2023/11/02 05:20:24;;;;;;;0.30;0.30;;;13.90;99.90;;;;;;5020006;28;20057;-80
2023/11/02 05:22:51;;;;;;;0.52;0.22;;;13.90;99.90;;;;;;5000816;28;20105;-80
2023/11/02 05:25:17;;;;;;;1.83;0.38;;;13.80;99.90;;;;;;4999728;28;20505;-80
2023/11/02 05:27:44;;;;;;;0.93;0.32;;;13.70;99.90;;;;;;4997866;28;20062;-79
2023/11/02 05:30:11;;;;;;;1.15;0.38;;;13.70;99.90;;;;;;4996204;28;20042;-80
2023/11/02 05:32:38;;;;;;;1.50;0.60;;;13.70;99.90;;;;;;5003009;28;20046;-80
2023/11/02 05:35:05;;;;;;;2.28;0.43;;;13.60;99.90;;;;;;5003983;28;20502;-80
2023/11/02 05:37:32;;;;;;;2.58;0.40;;;13.60;99.90;;;;;;5000086;28;20042;-80
2023/11/02 05:39:59;;;;;;;0.43;0.40;;;13.50;99.90;;;;;;4999967;28;20490;-80
2023/11/02 05:42:26;;;;;;;0.30;0.30;;;13.50;99.90;;;;;;5001633;28;20042;-81
2023/11/02 05:44:53;;;;;;;0.57;0.30;;;13.50;99.90;;;;;;5001217;28;20054;-80
2023/11/02 05:47:19;;;;;;;1.65;0.57;;;13.40;99.90;;;;;;5007061;28;20502;-80
2023/11/02 05:49:46;;;;;;;0.40;0.40;;;13.40;99.90;;;;;;5003823;28;20073;-81
2023/11/02 05:52:13;;;;;;;1.38;0.57;;;13.30;99.90;;;;;;5007030;28;20049;-81
2023/11/02 05:54:40;;;;;;;2.75;0.43;;;13.30;99.90;;;;;;5003442;28;20487;-80
2023/11/02 05:57:07;;;;;;;0.60;0.40;;;13.20;99.90;;;;;;5009228;28;20129;-79
2023/11/02 05:59:34;;;;;;;1.23;0.75;;;13.10;99.90;;;;;;5004388;28;20047;-80
2023/11/02 06:02:01;;;;;;;0.90;0.50;;;13.00;99.90;;;;;;5007815;28;20133;-81
2023/11/02 06:04:27;;;;;;;2.15;0.40;;;12.90;99.90;;;;;;5006691;28;20046;-81
2023/11/02 06:06:54;;;;;;;0.60;0.40;;;12.80;99.90;;;;;;5004519;28;20620;-79
2023/11/02 06:09:21;;;;;;;0.60;0.35;;;12.80;99.90;;;;;;5002091;28;20038;-80
2023/11/02 06:11:48;;;;;;;0.90;0.30;;;12.70;99.90;;;;;;5001915;28;20050;-81
2023/11/02 06:14:15;;;;;;;1.15;0.30;;;12.70;99.90;;;;;;5003632;28;20046;-80
2023/11/02 06:16:42;;;;;;;0.40;0.40;;;12.70;99.90;;;;;;5006385;28;20046;-80
2023/11/02 06:19:08;;;;;;;0.65;0.30;;;12.60;99.90;;;;;;5007225;28;20054;-80
2023/11/02 06:21:36;;;;;;;0.45;0.40;;;12.60;99.90;;;;;;4999623;28;20046;-80
2023/11/02 06:24:04;;;;;;;2.22;0.95;;;12.60;99.90;;;;;;5003785;28;20058;-80
2023/11/02 06:26:30;;;;;;;0.40;0.40;;;12.60;99.90;;;;;;4999323;28;20045;-80
2023/11/02 06:28:57;;;;;;;0.47;0.47;;;12.60;99.90;;;;;;5003918;28;20042;-79
2023/11/02 06:31:24;;;;;;;2.47;0.50;;;12.60;99.90;;;;;;5006762;28;20067;-80
2023/11/02 06:33:50;;;;;;;2.13;0.32;;;12.60;99.90;;;;;;5007758;28;20081;-81
2023/11/02 06:36:17;;;;;;;0.63;0.30;;;12.50;99.90;;;;;;5001269;28;20046;-80
2023/11/02 06:38:44;;;;;;;0.28;0.20;;;12.50;99.90;;;;;;5006141;28;20152;-81
2023/11/02 06:41:11;;;;;;;0.88;0.40;;;12.50;99.90;;;;;;5001430;28;20050;-80
2023/11/02 06:43:41;;;;;;;0.80;0.32;;;12.50;99.90;;;;;;5001142;28;20045;-79
2023/11/02 06:46:08;;;;;;;1.52;0.40;;;12.50;99.90;;;;;;5005787;28;20410;-80
2023/11/02 06:48:35;;;;;;;0.20;0.20;;;12.50;99.90;;;;;;5003215;28;20074;-79
2023/11/02 06:51:02;;;;;;;0.30;0.30;;;12.50;99.90;;;;;;5001914;28;20046;-80
2023/11/02 06:53:29;;;;;;;2.83;0.40;;;12.50;99.90;;;;;;4998508;28;20038;-80
2023/11/02 06:55:56;;;;;;;0.85;0.40;;;12.50;99.90;;;;;;4994934;28;20050;-79
2023/11/02 06:58:23;;;;;;;1.60;0.40;;;12.50;99.90;;;;;;5003556;28;20464;-80
2023/11/02 07:00:53;;;;;;;0.20;0.20;;;12.50;99.90;;;;;;5003066;28;20057;-79
2023/11/02 07:03:20;;;;;;;0.32;0.32;;;12.50;99.90;;;;;;5000377;28;20107;-79
2023/11/02 07:05:47;;;;;;;0.20;0.20;;;12.50;99.90;;;;;;4998673;28;20053;-78
2023/11/02 07:08:14;;;;;;;0.73;0.40;;;12.50;99.90;;;;;;5000322;28;20046;-81
2023/11/02 07:10:41;;;;;;;0.63;0.60;;;12.60;99.90;;;;;;4999532;28;20050;-80
2023/11/02 07:13:09;;;;;;;1.90;0.93;;;12.60;99.90;;;;;;5007427;28;20076;-79
2023/11/02 07:15:36;;;;;;;1.08;0.40;;;12.60;99.90;;;;;;5004566;28;20078;-80
2023/11/02 07:18:02;;;;;;;0.80;0.50;;;12.70;99.90;;;;;;5003204;28;20061;-80
2023/11/02 07:20:29;;;;;;;0.30;0.30;;;12.70;99.90;;;;;;4999512;28;20043;-79
2023/11/02 07:22:58;;;;;;;1.98;0.40;;;12.70;99.90;;;;;;4997921;28;20187;-78
2023/11/02 07:25:25;;;;;;;0.70;0.30;;;12.70;99.90;;;;;;4996410;28;20050;-80
2023/11/02 07:27:52;;;;;;;2.40;0.40;;;12.80;99.90;;;;;;4999963;28;20126;-79
2023/11/02 07:30:19;;;;;;;1.50;0.70;;;12.80;99.90;;;;;;5004448;28;20045;-79
2023/11/02 07:32:45;;;;;;;2.58;0.50;;;12.80;99.90;;;;;;5001091;28;20053;-80
2023/11/02 07:35:12;;;;;;;1.00;0.40;;;12.80;99.90;;;;;;5002311;28;20050;-80
2023/11/02 07:37:39;;;;;;;1.35;0.32;;;12.90;99.90;;;;;;4996634;28;20047;-79
2023/11/02 07:40:06;;;;;;;1.85;0.50;;;12.90;99.90;;;;;;4999355;28;20077;-80
2023/11/02 07:42:33;;;;;;;0.20;0.20;;;12.90;99.90;;;;;;5004347;28;20049;-81
2023/11/02 07:45:00;;;;;;;0.60;0.50;;;12.90;99.90;;;;;;5000947;28;20050;-79
2023/11/02 07:47:27;;;;;;;2.85;0.60;;;12.90;99.90;;;;;;5001761;28;20466;-78
2023/11/02 07:49:54;;;;;;;0.75;0.40;;;12.90;99.90;;;;;;4998711;28;20054;-79
2023/11/02 07:52:20;;;;;;;0.57;0.55;;;12.90;99.90;;;;;;4997678;28;20069;-81
2023/11/02 07:54:47;;;;;;;1.35;0.65;;;12.80;99.90;;;;;;5000307;28;20470;-80
2023/11/02 07:57:15;;;;;;;2.80;0.60;;;12.60;99.90;;;;;;5005174;28;20050;-80
2023/11/02 07:59:42;;;;;;;0.95;0.60;;;12.60;99.90;;;;;;5001953;28;20053;-80
2023/11/02 08:02:10;;;;;;;3.13;0.85;;;12.50;99.90;;;;;;5001353;28;20058;-78
2023/11/02 08:04:37;;;;;;;0.77;0.50;;;12.40;99.90;;;;;;4994876;28;20502;-79
2023/11/02 08:07:04;;;;;;;1.77;0.60;;;12.40;99.90;;;;;;4999201;28;20049;-80
2023/11/02 08:09:31;;;;;;;0.55;0.52;;;12.40;99.90;;;;;;5005006;28;20552;-78
2023/11/02 08:11:58;;;;;;;1.27;0.60;;;12.40;99.90;;;;;;5003962;28;20047;-79
2023/11/02 08:14:25;;;;;;;3.38;2.45;;;12.40;99.90;;;;;;5001072;28;20042;-80
2023/11/02 08:16:52;;;;;;;8.73;6.57;;;12.40;99.90;;;;;;5025385;22;20069;-79
2023/11/02 08:19:20;;;;;;;2.00;1.45;;;12.40;99.90;;;;;;5010605;28;20465;-79
2023/11/02 08:21:47;;;;;;;0.93;0.68;;;12.30;99.90;;;;;;5007729;28;20046;-79
2023/11/02 08:24:14;;;;;;;3.28;0.60;;;12.30;99.90;;;;;;5014218;28;20521;-79
2023/11/02 08:26:41;;;;;;;2.28;0.57;;;12.30;99.90;;;;;;5014039;28;20042;-79
2023/11/02 08:29:08;;;;;;;1.13;0.50;;;12.30;99.90;;;;;;5011709;28;20050;-79
2023/11/02 08:31:35;;;;;;;1.75;0.57;;;12.30;99.90;;;;;;5011763;28;20046;-79
2023/11/02 08:34:02;;;;;;;1.10;0.50;;;12.30;99.90;;;;;;5011378;28;20094;-79
2023/11/02 08:36:34;;;;;;;2.10;0.52;;;12.20;99.90;;;;;;5008926;28;20117;-79
2023/11/02 08:39:02;;;;;;;1.20;0.60;;;12.20;99.90;;;;;;5012531;28;20057;-79
2023/11/02 08:41:32;;;;;;;1.73;0.80;;;12.20;99.90;;;;;;5011334;28;20050;-79
2023/11/02 08:44:03;;;;;;;0.47;0.35;;;12.20;99.90;;;;;;5011113;28;20665;-79
2023/11/02 08:46:33;;;;;;;1.27;0.40;;;12.20;99.90;;;;;;5015040;28;20041;-79
2023/11/02 08:49:00;;;;;;;1.48;0.50;;;12.10;99.90;;;;;;5007086;28;20058;-79
2023/11/02 08:51:27;;;;;;;1.52;0.47;;;12.10;99.90;;;;;;5014628;28;20038;-78
2023/11/02 08:53:54;;;;;;;0.82;0.50;;;12.10;99.90;;;;;;5015367;28;20045;-79
2023/11/02 08:56:21;;;;;;;1.38;0.55;;;12.10;99.90;;;;;;5013313;28;20100;-79
2023/11/02 08:58:50;;;;;;;1.10;0.63;;;12.10;99.90;;;;;;5010188;28;20054;-79
2023/11/02 09:01:20;;;;;;;2.00;0.88;;;12.10;99.90;;;;;;5009082;28;20169;-79
2023/11/02 09:03:47;;;;;;;2.80;0.95;;;12.10;99.90;;;;;;5008028;28;20465;-79
2023/11/02 09:06:14;;;;;;;1.75;0.73;;;12.10;99.90;;;;;;5009335;28;20085;-79
2023/11/02 09:08:40;;;;;;;2.70;0.55;;;12.10;99.90;;;;;;5014865;28;20108;-79
2023/11/02 09:11:07;;;;;;;1.70;0.47;;;12.00;99.90;;;;;;5011880;28;20046;-79
2023/11/02 09:13:34;;;;;;;1.67;0.70;;;12.10;99.90;;;;;;5009428;28;20125;-79
2023/11/02 09:16:01;;;;;;;2.08;0.50;;;12.00;99.90;;;;;;5008076;28;20050;-79
2023/11/02 09:18:27;;;;;;;4.15;0.70;;;12.00;99.90;;;;;;5008553;28;20074;-78
2023/11/02 09:20:54;;;;;;;3.60;0.85;;;12.00;99.90;;;;;;5007854;28;20049;-79
2023/11/02 09:23:21;;;;;;;1.25;0.40;;;11.90;99.90;;;;;;5012562;28;20050;-79
2023/11/02 09:25:48;;;;;;;1.42;0.50;;;11.90;99.90;;;;;;5012626;28;20096;-79
2023/11/02 09:28:16;;;;;;;0.95;0.38;;;12.00;99.90;;;;;;5012190;28;20109;-78
2023/11/02 09:30:43;;;;;;;0.77;0.30;;;12.00;99.90;;;;;;5004219;28;20070;-78
2023/11/02 09:33:11;;;;;;;1.02;0.40;;;11.90;99.90;;;;;;5005029;28;20212;-79
2023/11/02 09:35:38;;;;;;;0.50;0.50;;;11.90;99.90;;;;;;5011367;28;20054;-79
2023/11/02 09:38:05;;;;;;;1.95;0.50;;;11.90;99.90;;;;;;5012875;28;20430;-79
2023/11/02 09:40:32;;;;;;;0.70;0.40;;;11.90;99.90;;;;;;5024088;28;20101;-78
2023/11/02 09:43:03;;;;;;;2.50;0.47;;;11.90;99.90;;;;;;5010529;28;20077;-80
2023/11/02 09:45:30;;;;;;;3.92;0.68;;;12.00;99.90;;;;;;5009695;28;20112;-79
2023/11/02 09:47:58;;;;;;;1.33;0.30;;;12.00;99.90;;;;;;5005450;28;20145;-79
2023/11/02 09:50:26;;;;;;;1.17;0.40;;;12.00;99.90;;;;;;5013155;28;20549;-79
2023/11/02 09:52:54;;;;;;;0.82;0.40;;;11.90;99.90;;;;;;5013223;28;20046;-79
2023/11/02 09:55:24;;;;;;;1.30;0.57;;;11.90;99.90;;;;;;5010204;28;20101;-78
2023/11/02 09:57:51;;;;;;;0.32;0.30;;;12.00;99.90;;;;;;5008840;28;20507;-79
2023/11/02 10:00:19;;;;;;;1.20;0.43;;;11.90;99.90;;;;;;5006508;28;20104;-79
2023/11/02 10:02:50;;;;;;;0.60;0.25;;;11.90;99.90;;;;;;5007995;28;20050;-79
2023/11/02 10:05:17;;;;;;;0.93;0.30;;;11.90;99.90;;;;;;5013141;28;20058;-79
2023/11/02 10:07:49;;;;;;;1.70;0.55;;;11.90;99.90;;;;;;5011073;28;20057;-79
2023/11/02 10:10:16;;;;;;;0.90;0.35;;;11.90;99.90;;;;;;5011832;28;20477;-79
2023/11/02 10:12:43;;;;;;;0.93;0.40;;;11.90;99.90;;;;;;5010436;28;20049;-79
2023/11/02 10:15:11;;;;;;;0.57;0.50;;;12.00;99.90;;;;;;5005240;28;20461;-79
2023/11/02 10:17:39;;;;;;;3.03;0.45;;;12.00;99.90;;;;;;5008038;28;20046;-79
2023/11/02 10:20:14;;;;;;;1.48;0.40;;;12.00;99.90;;;;;;5013288;28;20050;-78
2023/11/02 10:22:43;;;;;;;0.75;0.30;;;12.00;99.90;;;;;;5010839;28;20088;-79
2023/11/02 10:25:14;;;;;;;0.57;0.43;;;12.00;99.90;;;;;;5010670;28;20129;-79
2023/11/02 10:27:42;;;;;;;0.40;0.30;;;12.00;99.90;;;;;;5015913;28;20073;-79
2023/11/02 10:30:11;;;;;;;2.10;0.40;;;12.00;99.90;;;;;;5008781;28;20130;-79
2023/11/02 10:32:40;;;;;;;0.85;0.40;;;12.00;99.90;;;;;;5015866;28;20076;-79
2023/11/02 10:35:08;;;;;;;0.75;0.35;;;12.00;99.90;;;;;;5017406;28;20063;-79
2023/11/02 10:37:36;;;;;;;0.90;0.40;;;12.10;99.90;;;;;;5015264;28;20050;-79
2023/11/02 10:40:04;;;;;;;1.65;0.40;;;12.10;99.90;;;;;;5012689;28;20057;-79
2023/11/02 10:42:31;;;;;;;0.50;0.30;;;12.00;99.90;;;;;;5012595;28;20081;-79
2023/11/02 10:44:59;;;;;;;2.03;0.77;;;12.00;99.90;;;;;;5010430;28;20137;-79
2023/11/02 10:47:29;;;;;;;1.55;0.70;;;12.00;99.90;;;;;;5016887;28;20045;-79
2023/11/02 10:49:58;;;;;;;0.77;0.50;;;12.00;99.90;;;;;;5018073;28;20128;-79
2023/11/02 10:52:46;;;;;;;0.70;0.35;;;12.00;99.90;;;;;;5015242;28;20046;-79
2023/11/02 10:55:22;;;;;;;0.40;0.30;;;12.10;99.90;;;;;;5013603;28;20046;-78
2023/11/02 10:57:50;;;;;;;1.65;0.50;;;12.00;99.90;;;;;;5010010;28;20084;-79
2023/11/02 11:00:17;;;;;;;1.80;0.80;;;12.00;99.90;;;;;;5018867;28;20054;-79
2023/11/02 11:02:47;;;;;;;1.75;0.30;;;12.10;99.90;;;;;;5021164;28;20050;-78
2023/11/02 11:05:18;;;;;;;1.25;0.30;;;12.00;99.90;;;;;;5017163;28;20390;-78
2023/11/02 11:07:45;;;;;;;1.02;0.35;;;12.00;99.90;;;;;;5015028;28;20046;-79
2023/11/02 11:10:13;;;;;;;1.20;0.40;;;12.00;99.90;;;;;;5013990;28;20049;-79
2023/11/02 11:12:41;;;;;;;2.28;0.60;;;12.00;99.90;;;;;;5015351;28;20049;-79
2023/11/02 11:15:11;;;;;;;0.90;0.40;;;12.00;99.90;;;;;;5010648;28;20104;-79
2023/11/02 11:17:46;;;;;;;;;;;12.00;99.90;;;;;;5013368;28;20042;-79
2023/11/02 11:20:15;;;;;;;1.77;0.60;;;12.00;99.90;;;;;;5013413;28;19965;-79
2023/11/02 11:22:47;;;;;;;0.98;0.43;;;12.00;99.90;;;;;;5013515;28;20046;-79
2023/11/02 11:25:14;;;;;;;2.95;0.50;;;12.00;99.90;;;;;;5013611;28;20054;-79
2023/11/02 11:27:41;;;;;;;1.50;0.55;;;12.00;99.90;;;;;;5010078;28;20046;-79
2023/11/02 11:30:20;;;;;;;2.35;0.50;;;12.00;99.90;;;;;;5012823;28;20049;-79
2023/11/02 11:32:47;;;;;;;2.67;0.50;;;11.90;99.90;;;;;;5012748;28;20128;-79
2023/11/02 11:35:17;;;;;;;2.70;0.80;;;11.90;99.90;;;;;;5014034;28;20049;-79
2023/11/02 11:40:24;;;;;;;0.47;0.30;;;11.80;99.90;;;;;;5007936;28;20081;-79
2023/11/02 11:43:00;;;;;;;0.35;0.22;;;11.80;99.90;;;;;;5008698;28;20054;-79
2023/11/02 11:45:34;;;;;;;1.63;0.70;;;11.80;99.90;;;;;;5014970;28;20134;-79
2023/11/02 11:48:06;;;;;;;0.90;0.50;;;11.70;99.90;;;;;;5014241;28;20085;-79
2023/11/02 11:50:39;;;;;;;1.45;0.70;;;11.70;99.90;;;;;;5011514;28;20510;-78
2023/11/02 11:53:20;;;;;;;0.45;0.45;;;11.70;99.90;;;;;;5013930;28;20516;-79
2023/11/02 11:55:49;;;;;;;0.22;0.10;;;11.60;99.90;;;;;;5006465;28;20050;-79
2023/11/02 11:58:37;;;;;;;0.60;0.40;;;11.60;99.90;;;;;;5013931;28;20052;-79
2023/11/02 12:01:03;;;;;;;1.80;0.60;;;11.60;99.90;;;;;;5011363;28;20055;-79
2023/11/02 12:03:36;;;;;;;2.50;0.88;;;11.60;99.90;;;;;;5012894;28;20108;-79
2023/11/02 12:06:12;;;;;;;0.20;0.20;;;11.60;99.90;;;;;;5011176;28;20054;-79
2023/11/02 12:08:46;;;;;;;3.40;0.50;;;11.60;99.90;;;;;;5011359;28;20056;-79
2023/11/02 12:11:15;;;;;;;0.35;0.35;;;11.60;99.90;;;;;;5007200;28;20081;-79
2023/11/02 12:13:52;;;;;;;0.40;0.40;;;11.70;99.90;;;;;;5016971;28;20049;-79
2023/11/02 12:16:20;;;;;;;1.67;0.70;;;11.70;99.90;;;;;;5015990;28;20046;-79
2023/11/02 12:18:53;;;;;;;0.90;0.50;;;11.70;99.90;;;;;;5022735;28;20064;-78
2023/11/02 12:21:22;;;;;;;0.85;0.47;;;11.70;99.90;;;;;;5026089;28;20050;-78
2023/11/02 12:23:50;;;;;;;4.88;0.40;;;11.70;99.90;;;;;;5021421;28;20042;-78
2023/11/02 12:26:22;;;;;;;0.50;0.50;;;11.60;99.90;;;;;;5025312;28;20034;-78
2023/11/02 12:29:04;;;;;;;0.22;0.22;;;11.70;99.90;;;;;;5027451;28;20464;-79
2023/11/02 12:31:36;;;;;;;0.10;0.10;;;11.70;99.90;;;;;;5026534;28;20035;-77
2023/11/02 12:34:10;;;;;;;0.30;0.30;;;11.70;99.90;;;;;;5040061;28;20046;-79
2023/11/02 12:36:42;;;;;;;0.47;0.28;;;11.70;99.90;;;;;;5009788;28;20113;-79
2023/11/02 12:39:17;;;;;;;0.30;0.30;;;11.80;99.90;;;;;;5009933;28;20046;-78
2023/11/02 12:41:47;;;;;;;0.93;0.50;;;11.80;99.90;;;;;;5014161;28;20072;-78
2023/11/02 12:44:16;;;;;;;0.40;0.32;;;11.80;99.90;;;;;;5012262;28;20050;-78
2023/11/02 12:46:46;;;;;;;1.33;0.40;;;11.70;99.90;;;;;;5011005;28;20046;-78
2023/11/02 12:49:18;;;;;;;0.47;0.30;;;11.80;99.90;;;;;;5010871;28;20429;-78
2023/11/02 12:51:49;;;;;;;0.30;0.30;;;11.80;99.90;;;;;;5006981;28;20429;-78
2023/11/02 12:54:17;;;;;;;0.30;0.30;;;11.80;99.90;;;;;;5008607;28;20053;-79
2023/11/02 12:56:46;;;;;;;0.60;0.30;;;11.80;99.90;;;;;;5011823;28;20100;-78
2023/11/02 12:59:13;;;;;;;0.13;0.13;;;11.90;99.90;;;;;;5010004;28;20054;-78
2023/11/02 13:01:43;;;;;;;0.20;0.20;;;11.90;99.90;;;;;;5007902;28;20054;-78
2023/11/02 13:04:10;;;;;;;;;;;12.00;99.90;;;;;;5007024;28;20133;-78
2023/11/02 13:06:37;;;;;;;0.55;0.22;;;12.00;99.90;;;;;;5004085;28;19965;-78
2023/11/02 13:09:08;;;;;;;0.55;0.47;;;12.00;99.90;;;;;;5005360;28;20046;-78